Green Ice — C6SO4 — position and weather

sailwx.info

Track history (hours):
 
Tides and Currents Weather Stations Pressure Air Temp Water Temp Dewpoint Dewpoint Depression Visibility Wind Speed Wind Dir Waves Ship Positions

Green Ice

Last reported at 2014-Oct-30 17:22 UTC. Time now 2014-Oct-30 19:02 UTC.
Position N 53°42' E 006°23'.

Length 86 m; draft 5.4 m.

Type: Cargo ship. MMSI: 311411000.

Date/timePositionNaut miles runAvg speedWind from/ knotsBaromVisibWave heightAir tempDewpointWater temp
2014-Oct-30 17:22N 53°42' E 006°23'911.1
2014-Oct-30 16:32N 53°36' E 006°35'1313.2
2014-Oct-30 15:33N 53°27' E 006°50'1 0.7
2014-Oct-30 14:32N 53°27' E 006°49'0 0.0
2014-Oct-30 13:32N 53°27' E 006°49'0 0.0
2014-Oct-30 12:32N 53°27' E 006°49'0 0.0
2014-Oct-30 11:32N 53°27' E 006°49'0 0.0
2014-Oct-30 10:32N 53°27' E 006°49'0 0.0
2014-Oct-30 09:32N 53°27' E 006°49'0 0.0
2014-Oct-30 08:32N 53°27' E 006°49'0 0.0
2014-Oct-30 07:32N 53°27' E 006°49'0 0.0
2014-Oct-30 06:32N 53°27' E 006°49'0 0.0
2014-Oct-30 05:32N 53°27' E 006°49'0 0.0
2014-Oct-30 04:32N 53°27' E 006°49'0 0.0
2014-Oct-30 03:32N 53°27' E 006°49'0 0.0
2014-Oct-30 02:32N 53°27' E 006°49'0 0.0
2014-Oct-30 01:32N 53°27' E 006°49'0 0.0
2014-Oct-30 00:31N 53°27' E 006°49'0 0.0
2014-Oct-29 23:31N 53°27' E 006°49'0 0.0
2014-Oct-29 22:31N 53°27' E 006°49'0 0.0
2014-Oct-29 21:31N 53°27' E 006°49'0 0.0
2014-Oct-29 20:28N 53°27' E 006°49'0 0.0
2014-Oct-29 19:31N 53°27' E 006°49'0 0.0
2014-Oct-29 18:31N 53°27' E 006°49'0 0.0
2014-Oct-29 17:31N 53°27' E 006°49'0 0.0
2014-Oct-29 16:31N 53°27' E 006°49'0 0.0
2014-Oct-29 15:34N 53°27' E 006°49'8 8.0
2014-Oct-29 14:33N 53°33' E 006°41'1110.5
2014-Oct-29 13:32N 53°37' E 006°24'10 9.8
2014-Oct-29 12:32N 53°46' E 006°22'10312.9
2014-Oct-29 04:33N 55°29' E 006°09'186 9.7
2014-Oct-28 09:26N 58°34' E 005°28'12 9.7
2014-Oct-28 08:13N 58°45' E 005°25'6 8.7
2014-Oct-28 07:33N 58°51' E 005°29'1110.6
2014-Oct-28 06:33N 59°01' E 005°33'1110.5
2014-Oct-28 05:33N 59°10' E 005°20'1212.1
2014-Oct-28 04:33N 59°22' E 005°18'  
2014-Oct-25 01:07N 63°47' E 009°18'7412.5
2014-Oct-24 19:09N 64°46' E 011°02'812.9
2014-Oct-24 18:33N 64°51' E 011°15'1312.3
2014-Oct-24 17:32N 64°60' E 011°37'6512.3
2014-Oct-24 12:15N 66°00' E 012°32'2112.5
2014-Oct-24 10:33N 66°19' E 012°57'1312.5
2014-Oct-24 09:33N 66°32' E 012°57'2611.6
2014-Oct-24 07:21N 66°54' E 013°28'911.3
2014-Oct-24 06:31N 67°01' E 013°44'1211.9
2014-Oct-24 05:31N 67°10' E 014°03'1212.3
2014-Oct-24 04:33N 67°20' E 014°21'1110.9
2014-Oct-24 03:32N 67°31' E 014°21'1711.7
2014-Oct-24 02:06N 67°48' E 014°20'143 8.9
2014-Oct-23 10:06N 69°33' E 018°45'610.8
2014-Oct-23 09:33N 69°38' E 018°56'2 1.5
2014-Oct-23 08:21N 69°39' E 018°58'0 0.0
2014-Oct-23 07:33N 69°39' E 018°58'2 1.8
2014-Oct-23 06:32N 69°38' E 018°57'0 0.0
2014-Oct-23 05:32N 69°38' E 018°57'0 0.0
2014-Oct-23 04:29N 69°38' E 018°57'0 0.0
2014-Oct-23 03:29N 69°38' E 018°57'0 0.1
2014-Oct-23 02:32N 69°38' E 018°57'0 0.0
2014-Oct-23 01:08N 69°38' E 018°57'0 0.0
2014-Oct-23 00:32N 69°38' E 018°57'0 0.0
2014-Oct-22 23:32N 69°38' E 018°57'0 0.0
2014-Oct-22 22:29N 69°38' E 018°57'0 0.0
2014-Oct-22 21:23N 69°38' E 018°57'0 0.0
2014-Oct-22 20:32N 69°38' E 018°57'0 0.0
2014-Oct-22 19:26N 69°38' E 018°57'0 0.0
2014-Oct-22 18:29N 69°38' E 018°57'0 0.0
2014-Oct-22 17:26N 69°38' E 018°57'0 0.0
2014-Oct-22 16:32N 69°38' E 018°57'3 3.3
2014-Oct-22 15:33N 69°41' E 019°01'2 1.5
2014-Oct-22 14:27N 69°42' E 019°01'1 0.8
2014-Oct-22 13:32N 69°43' E 019°03'9711.9
2014-Oct-22 05:21N 70°34' E 023°06'  
Track history (hours):
 
Tides and Currents Weather Stations Pressure Air Temp Water Temp Dewpoint Dewpoint Depression Visibility Wind Speed Wind Dir Waves Ship Positions

Green Ice

Last reported at 2014-Oct-30 17:22 UTC. Time now 2014-Oct-30 19:02 UTC.
Position N 53°42' E 006°23'.

Length 86 m; draft 5.4 m.

Type: Cargo ship. MMSI: 311411000.

Date/timePositionNaut miles runAvg speedWind from/ knotsBaromVisibWave heightAir tempDewpointWater temp
2014-Oct-30 17:22N 53°42' E 006°23'911.1
2014-Oct-30 16:32N 53°36' E 006°35'1313.2
2014-Oct-30 15:33N 53°27' E 006°50'1 0.7
2014-Oct-30 14:32N 53°27' E 006°49'0 0.0
2014-Oct-30 13:32N 53°27' E 006°49'0 0.0
2014-Oct-30 12:32N 53°27' E 006°49'0 0.0
2014-Oct-30 11:32N 53°27' E 006°49'0 0.0
2014-Oct-30 10:32N 53°27' E 006°49'0 0.0
2014-Oct-30 09:32N 53°27' E 006°49'0 0.0
2014-Oct-30 08:32N 53°27' E 006°49'0 0.0
2014-Oct-30 07:32N 53°27' E 006°49'0 0.0
2014-Oct-30 06:32N 53°27' E 006°49'0 0.0
2014-Oct-30 05:32N 53°27' E 006°49'0 0.0
2014-Oct-30 04:32N 53°27' E 006°49'0 0.0
2014-Oct-30 03:32N 53°27' E 006°49'0 0.0
2014-Oct-30 02:32N 53°27' E 006°49'0 0.0
2014-Oct-30 01:32N 53°27' E 006°49'0 0.0
2014-Oct-30 00:31N 53°27' E 006°49'0 0.0
2014-Oct-29 23:31N 53°27' E 006°49'0 0.0
2014-Oct-29 22:31N 53°27' E 006°49'0 0.0
2014-Oct-29 21:31N 53°27' E 006°49'0 0.0
2014-Oct-29 20:28N 53°27' E 006°49'0 0.0
2014-Oct-29 19:31N 53°27' E 006°49'0 0.0
2014-Oct-29 18:31N 53°27' E 006°49'0 0.0
2014-Oct-29 17:31N 53°27' E 006°49'0 0.0
2014-Oct-29 16:31N 53°27' E 006°49'0 0.0
2014-Oct-29 15:34N 53°27' E 006°49'8 8.0
2014-Oct-29 14:33N 53°33' E 006°41'1110.5
2014-Oct-29 13:32N 53°37' E 006°24'10 9.8
2014-Oct-29 12:32N 53°46' E 006°22'10312.9
2014-Oct-29 04:33N 55°29' E 006°09'186 9.7
2014-Oct-28 09:26N 58°34' E 005°28'12 9.7
2014-Oct-28 08:13N 58°45' E 005°25'6 8.7
2014-Oct-28 07:33N 58°51' E 005°29'1110.6
2014-Oct-28 06:33N 59°01' E 005°33'1110.5
2014-Oct-28 05:33N 59°10' E 005°20'1212.1
2014-Oct-28 04:33N 59°22' E 005°18'  
2014-Oct-25 01:07N 63°47' E 009°18'7412.5
2014-Oct-24 19:09N 64°46' E 011°02'812.9
2014-Oct-24 18:33N 64°51' E 011°15'1312.3
2014-Oct-24 17:32N 64°60' E 011°37'6512.3
2014-Oct-24 12:15N 66°00' E 012°32'2112.5
2014-Oct-24 10:33N 66°19' E 012°57'1312.5
2014-Oct-24 09:33N 66°32' E 012°57'2611.6
2014-Oct-24 07:21N 66°54' E 013°28'911.3
2014-Oct-24 06:31N 67°01' E 013°44'1211.9
2014-Oct-24 05:31N 67°10' E 014°03'1212.3
2014-Oct-24 04:33N 67°20' E 014°21'1110.9
2014-Oct-24 03:32N 67°31' E 014°21'1711.7
2014-Oct-24 02:06N 67°48' E 014°20'143 8.9
2014-Oct-23 10:06N 69°33' E 018°45'610.8
2014-Oct-23 09:33N 69°38' E 018°56'2 1.5
2014-Oct-23 08:21N 69°39' E 018°58'0 0.0
2014-Oct-23 07:33N 69°39' E 018°58'2 1.8
2014-Oct-23 06:32N 69°38' E 018°57'0 0.0
2014-Oct-23 05:32N 69°38' E 018°57'0 0.0
2014-Oct-23 04:29N 69°38' E 018°57'0 0.0
2014-Oct-23 03:29N 69°38' E 018°57'0 0.1
2014-Oct-23 02:32N 69°38' E 018°57'0 0.0
2014-Oct-23 01:08N 69°38' E 018°57'0 0.0
2014-Oct-23 00:32N 69°38' E 018°57'0 0.0
2014-Oct-22 23:32N 69°38' E 018°57'0 0.0
2014-Oct-22 22:29N 69°38' E 018°57'0 0.0
2014-Oct-22 21:23N 69°38' E 018°57'0 0.0
2014-Oct-22 20:32N 69°38' E 018°57'0 0.0
2014-Oct-22 19:26N 69°38' E 018°57'0 0.0
2014-Oct-22 18:29N 69°38' E 018°57'0 0.0
2014-Oct-22 17:26N 69°38' E 018°57'0 0.0
2014-Oct-22 16:32N 69°38' E 018°57'3 3.3
2014-Oct-22 15:33N 69°41' E 019°01'2 1.5
2014-Oct-22 14:27N 69°42' E 019°01'1 0.8
2014-Oct-22 13:32N 69°43' E 019°03'9711.9
2014-Oct-22 05:21N 70°34' E 023°06'  

Dump ship's entire track history